Industry, IL (61440)

12:35 AM CST on February 09, 2016 (GMT -0600)
Cindy Gumbart | | Change Station
CLOSE
Current Station
Personal Weather Station
Location: Macomb, IL
Elevation: 663 ft
Nearby Weather Stations
Active Advisory: Special Statement

Elev 663 ft 40.42 °N, 90.71 °W | Updated 5 seconds ago

Snow
Snow
17.4 °F
Feels Like 6 °F
N
8.9
Wind Variable Wind from NW
Gusts 12.3 mph

Today
High -- | Low -- °F
--% Chance of Precip.
Yesterday
High -- | Low -- °F
Precip. -- in
Pressure 29.90 in
Visibility 7.0 miles
Clouds Mostly Cloudy 1900 ft
Overcast 2400 ft
Windchill 6 °F
Dew Point 9 °F
Humidity 69%
Rainfall 0.00 in
Snow Depth Not available.
7:03 AM 5:30 PM
New Moon, 1% visible
METAR KMQB 090615Z AUTO 31014G20KT 7SM -SN BKN019 OVC024 M08/M10 A2990 RMK AO2 T10811098
Pressure 29.90 in
Visibility 7.0 miles
Clouds Mostly Cloudy 1900 ft
Overcast 2400 ft
Windchill 6 °F
Dew Point 9 °F
Humidity 69%
Rainfall 0.00 in
Snow Depth Not available.
7:03 AM 5:30 PM
New Moon, 1% visible
METAR KMQB 090615Z AUTO 31014G20KT 7SM -SN BKN019 OVC024 M08/M10 A2990 RMK AO2 T10811098

10-Day Weather Forecast

Almanac

Astronomy

Feb. 09, 2016 Rise Set
Actual Time
Civil Twilight
Nautical Twilight
Astronomical Twilight
Moon
Length of Visible Light
Length of Day
Tomorrow will be .
, % of the Moon is Illuminated

Today's Extremes

State Highs State Lows

Community

WunderPhotos

Upload Photos

1,891,571 photos uploaded!

WunderBlog® & News

Nearby

Air Quality

  Air Quality AQ Index Pollutant
Not available.

Snow Depth

Station Depth Elevation

Earthquake Activity

City Distance Mag. Time & Date
Minimum magnitude displayed is 2.5.

Coastal Water Temperatures

Place Temperature

Stations

Nearby Weather Stations

Station Location Temp. Windchill Dew Point Humidity Wind Precip. Elev Updated Type
                   

Watches & Warnings

Special Statement
Issued: 11:08 PM CST Feb. 8, 2016 – National Weather Service

... Light snow and flurries through 2 am...

Areas of flurries and light snow will continue through 2 am before
diminishing. Any additional snow totals will be light with a dusting
to possibly a tenth or two of fresh powdery snow. Area roads remain
in mostly good condition from Iowa Department of Transportation with
patchy snow possible on some roadways.

Motorist should drive defensively if they observed snow and ice on
area roadways.


Nichols